Time;durP1;ratioP1;P1;durP2;ratioP2;P2;SDS_P1;SDS_P2;PMS_P1;PMS_P2;Temp;Humidity;BMP_temperature;BMP_pressure;BME280_temperature;BME280_humidity;BME280_pressure;Samples;Min_cycle;Max_cycle;Signal;HPM_P1;HPM_P2
2022/06/19 00:01:10;;;;;;;;;;;;;;;21.48;48.01;99935.69;4435700;32;33872;-83
2022/06/19 00:03:42;;;;;;;2.28;1.10;;;;;;;21.42;48.28;99942.16;4432826;32;32649;-83
2022/06/19 00:06:11;;;;;;;1.98;0.95;;;;;;;21.43;48.60;99949.16;4442595;32;33480;-83
2022/06/19 00:08:41;;;;;;;3.17;1.40;;;;;;;21.45;48.46;99943.78;4448698;32;33827;-83
2022/06/19 00:11:12;;;;;;;3.67;1.92;;;;;;;21.38;48.76;99937.94;4440893;32;34404;-82
2022/06/19 00:13:42;;;;;;;4.22;1.80;;;;;;;21.40;48.47;99936.12;4442470;32;32200;-84
2022/06/19 00:16:11;;;;;;;1.20;0.90;;;;;;;21.41;49.68;99935.19;4445113;32;33750;-83
2022/06/19 00:18:40;;;;;;;1.55;1.02;;;;;;;21.28;49.65;99928.81;4443630;32;34701;-84
2022/06/19 00:21:10;;;;;;;3.10;1.17;;;;;;;21.22;49.87;99930.00;4443207;32;33159;-82
2022/06/19 00:23:39;;;;;;;1.33;1.10;;;;;;;21.26;48.99;99925.41;4440225;32;31112;-83
2022/06/19 00:26:08;;;;;;;7.40;1.10;;;;;;;21.26;48.70;99930.69;4437043;32;34532;-84
2022/06/19 00:28:37;;;;;;;2.85;2.53;;;;;;;21.20;48.83;99934.53;4443716;32;34516;-83
2022/06/19 00:31:07;;;;;;;1.85;1.02;;;;;;;21.20;49.29;99933.66;4441422;32;34579;-83
2022/06/19 00:33:36;;;;;;;3.00;1.52;;;;;;;21.05;49.85;99920.34;4451942;32;33814;-83
2022/06/19 00:36:06;;;;;;;2.03;1.12;;;;;;;21.15;49.54;99923.34;4435625;32;32153;-83
2022/06/19 00:38:35;;;;;;;2.40;1.50;;;;;;;21.26;48.73;99923.66;4440220;32;34029;-83
2022/06/19 00:41:04;;;;;;;1.35;0.95;;;;;;;21.25;48.65;99921.94;4445378;32;33985;-83
2022/06/19 00:43:53;;;;;;;2.45;1.95;;;;;;;21.07;49.35;99926.41;4438602;32;33453;-83
2022/06/19 00:46:50;;;;;;;2.72;1.12;;;;;;;21.15;49.34;99920.72;4438373;32;33553;-82
2022/06/19 00:49:23;;;;;;;1.05;0.90;;;;;;;21.05;49.40;99919.50;4437585;32;34334;-82
2022/06/19 00:52:02;;;;;;;2.20;1.30;;;;;;;21.09;49.34;99924.56;4448831;32;34527;-83
2022/06/19 00:54:35;;;;;;;1.83;1.00;;;;;;;20.88;49.81;99918.59;4436967;32;33455;-83
2022/06/19 00:57:05;;;;;;;1.58;1.10;;;;;;;20.79;49.95;99921.72;4435194;32;33949;-83
2022/06/19 00:59:34;;;;;;;2.42;1.17;;;;;;;20.93;49.80;99912.25;4433903;32;33880;-84
2022/06/19 01:02:04;;;;;;;2.03;1.10;;;;;;;20.83;49.72;99912.72;4443616;32;33971;-83
2022/06/19 01:04:36;;;;;;;;;;;;;;;20.95;49.59;99907.72;4434471;32;33525;-84
2022/06/19 01:07:05;;;;;;;1.67;1.05;;;;;;;20.85;50.05;99913.50;4436423;32;33751;-83
2022/06/19 01:09:34;;;;;;;1.12;1.00;;;;;;;20.74;49.66;99910.56;4434178;32;34702;-83
2022/06/19 01:12:05;;;;;;;2.28;1.20;;;;;;;20.75;49.65;99909.63;4431545;32;34650;-84
2022/06/19 01:14:34;;;;;;;2.00;1.23;;;;;;;20.77;49.71;99910.37;4430883;32;33406;-84
2022/06/19 01:17:05;;;;;;;1.20;1.10;;;;;;;20.71;50.35;99901.94;4432396;32;33803;-84
2022/06/19 01:19:38;;;;;;;1.40;1.12;;;;;;;20.65;49.78;99900.47;4438930;32;33586;-83
2022/06/19 01:22:13;;;;;;;1.73;1.12;;;;;;;20.81;50.45;99896.13;4445128;32;33585;-83
2022/06/19 01:24:55;;;;;;;2.42;1.25;;;;;;;20.74;49.70;99900.00;4441101;32;34099;-83
2022/06/19 01:30:09;;;;;;;1.92;1.50;;;;;;;20.74;50.01;99897.38;4443367;32;33496;-84
2022/06/19 01:32:38;;;;;;;2.05;1.30;;;;;;;20.75;49.53;99890.31;4454365;32;34069;-83
2022/06/19 01:35:10;;;;;;;1.02;0.90;;;;;;;20.70;49.62;99890.53;4458280;32;34365;-83
2022/06/19 01:37:40;;;;;;;0.88;0.80;;;;;;;20.74;49.70;99891.25;4446991;32;34185;-83
2022/06/19 01:40:15;;;;;;;1.45;1.17;;;;;;;20.63;50.07;99895.31;4443765;32;33983;-83
2022/06/19 01:42:44;;;;;;;2.25;1.37;;;;;;;20.81;50.17;99895.28;4440710;32;34483;-83
2022/06/19 01:45:13;;;;;;;9.65;1.15;;;;;;;20.63;50.84;99895.31;4437933;32;33086;-82
2022/06/19 01:47:42;;;;;;;1.60;1.12;;;;;;;20.73;50.51;99894.81;4446170;32;34509;-83
2022/06/19 01:50:14;;;;;;;1.27;1.08;;;;;;;20.67;50.13;99891.56;4452738;32;34727;-83
2022/06/19 01:52:43;;;;;;;1.50;1.25;;;;;;;20.63;49.90;99890.03;4443887;32;34399;-83
2022/06/19 01:55:16;;;;;;;1.05;0.98;;;;;;;20.58;49.98;99888.53;4439651;32;33406;-83
2022/06/19 01:57:48;;;;;;;2.00;1.30;;;;;;;20.54;49.93;99889.59;4431927;32;34198;-84
2022/06/19 02:00:19;;;;;;;1.33;1.10;;;;;;;20.70;49.52;99885.28;4439057;32;33988;-83
2022/06/19 02:02:56;;;;;;;1.37;1.15;;;;;;;20.43;50.59;99885.72;4431569;32;33487;-83
2022/06/19 02:05:25;;;;;;;2.10;1.33;;;;;;;20.60;49.79;99882.25;4436673;32;33275;-83
2022/06/19 02:07:54;;;;;;;2.10;1.37;;;;;;;20.57;50.46;99873.69;4428829;32;34198;-83
2022/06/19 02:10:26;;;;;;;1.65;1.23;;;;;;;20.50;50.71;99877.53;4435450;32;33870;-83
2022/06/19 02:12:56;;;;;;;1.17;0.90;;;;;;;20.55;50.05;99880.78;4431383;32;34429;-83
2022/06/19 02:15:25;;;;;;;1.70;1.12;;;;;;;20.53;50.17;99872.09;4433704;32;33129;-83
2022/06/19 02:17:54;;;;;;;1.40;1.20;;;;;;;20.42;50.38;99864.75;4450387;32;34593;-83
2022/06/19 02:20:23;;;;;;;1.50;1.17;;;;;;;20.48;50.56;99866.22;4447135;32;32748;-83
2022/06/19 02:22:52;;;;;;;2.12;1.20;;;;;;;20.48;50.67;99861.78;4441198;32;34881;-84
2022/06/19 02:25:21;;;;;;;1.35;0.95;;;;;;;20.39;50.65;99860.50;4433549;32;33453;-83
2022/06/19 02:27:52;;;;;;;1.92;1.08;;;;;;;20.37;50.77;99862.34;4435318;32;33560;-83
2022/06/19 02:30:21;;;;;;;2.17;1.15;;;;;;;20.37;50.79;99869.38;4435592;32;33759;-83
2022/06/19 02:32:51;;;;;;;1.83;1.00;;;;;;;20.39;50.41;99870.16;4452036;32;33473;-83
2022/06/19 02:35:23;;;;;;;3.00;1.40;;;;;;;20.41;50.31;99884.94;4435115;32;34168;-83
2022/06/19 02:37:54;;;;;;;0.88;0.88;;;;;;;20.33;50.43;99879.22;4437791;32;33678;-83
2022/06/19 02:40:31;;;;;;;2.33;1.20;;;;;;;20.39;50.71;99873.66;4436085;32;33981;-84
2022/06/19 02:43:01;;;;;;;2.45;1.20;;;;;;;20.31;51.28;99875.81;4431280;32;34201;-84
2022/06/19 02:45:31;;;;;;;1.95;1.05;;;;;;;20.45;50.96;99872.50;4434059;32;35185;-83
2022/06/19 02:48:02;;;;;;;1.52;1.20;;;;;;;20.41;50.97;99874.41;4437448;32;33924;-83
2022/06/19 02:50:33;;;;;;;1.47;1.13;;;;;;;20.38;50.68;99871.94;4430674;32;33984;-83
2022/06/19 02:53:02;;;;;;;1.42;0.90;;;;;;;20.40;50.84;99869.25;4437511;32;33893;-83
2022/06/19 02:55:31;;;;;;;2.10;1.17;;;;;;;20.56;50.38;99874.59;4437135;32;34073;-82
2022/06/19 02:58:01;;;;;;;2.08;1.33;;;;;;;20.41;50.69;99858.59;4433539;32;34641;-83
2022/06/19 03:00:30;;;;;;;1.15;1.05;;;;;;;20.46;51.04;99869.78;4436342;32;34701;-84
2022/06/19 03:03:01;;;;;;;1.95;1.25;;;;;;;20.57;50.72;99860.50;4432160;32;33527;-83
2022/06/19 03:05:30;;;;;;;2.22;1.10;;;;;;;20.50;50.96;99859.91;4432221;32;33187;-83
2022/06/19 03:08:00;;;;;;;1.98;1.05;;;;;;;20.52;51.04;99855.44;4431399;32;34251;-84
2022/06/19 03:10:30;;;;;;;2.42;1.15;;;;;;;20.72;50.43;99862.31;4439830;32;33800;-83
2022/06/19 03:13:01;;;;;;;1.10;1.00;;;;;;;20.84;50.19;99858.19;4454186;32;33194;-83
2022/06/19 03:15:30;;;;;;;2.53;1.00;;;;;;;20.59;51.11;99859.50;4441917;32;34771;-82
2022/06/19 03:17:59;;;;;;;1.23;0.95;;;;;;;20.78;50.71;99858.50;4433616;32;34500;-83
2022/06/19 03:20:28;;;;;;;1.33;0.93;;;;;;;20.70;52.14;99860.72;4435298;32;34100;-83
2022/06/19 03:22:57;;;;;;;1.45;1.20;;;;;;;20.68;51.50;99852.88;4436663;32;33860;-83
2022/06/19 03:25:26;;;;;;;1.37;1.08;;;;;;;20.69;50.99;99853.75;4434363;32;33410;-83
2022/06/19 03:27:55;;;;;;;2.20;1.35;;;;;;;20.71;51.31;99850.09;4443956;32;33681;-83
2022/06/19 03:30:25;;;;;;;1.52;1.00;;;;;;;20.60;51.62;99842.72;4432839;32;33707;-84
2022/06/19 03:32:54;;;;;;;1.60;1.20;;;;;;;20.69;51.80;99849.31;4441155;32;32944;-83
2022/06/19 03:35:23;;;;;;;1.35;1.15;;;;;;;20.72;50.76;99845.66;4435552;32;33412;-83
2022/06/19 03:37:52;;;;;;;1.42;1.10;;;;;;;20.57;52.35;99847.31;4434341;32;33555;-83
2022/06/19 03:40:21;;;;;;;1.98;1.15;;;;;;;20.35;52.77;99848.37;4448442;32;33927;-83
2022/06/19 03:42:50;;;;;;;1.10;0.80;;;;;;;20.51;51.89;99845.81;4448385;32;33646;-83
2022/06/19 03:45:18;;;;;;;1.62;1.20;;;;;;;20.59;52.39;99850.72;4432517;32;33903;-83
2022/06/19 03:47:49;;;;;;;1.35;1.00;;;;;;;20.67;52.13;99852.00;4432513;32;33579;-83
2022/06/19 03:50:20;;;;;;;1.70;1.00;;;;;;;20.76;51.08;99850.69;4432475;32;33431;-83
2022/06/19 03:52:49;;;;;;;1.48;1.10;;;;;;;20.72;51.58;99849.16;4439830;32;34203;-82
2022/06/19 03:55:18;;;;;;;1.92;1.10;;;;;;;20.80;51.42;99848.72;4434479;32;33255;-83
2022/06/19 03:57:46;;;;;;;1.55;1.10;;;;;;;20.66;51.87;99844.22;4445153;32;34353;-83
2022/06/19 04:00:19;;;;;;;1.95;1.15;;;;;;;20.86;51.52;99853.69;4432821;32;34012;-83
2022/06/19 04:02:49;;;;;;;1.67;1.08;;;;;;;20.67;52.03;99849.37;4431352;32;34740;-82
2022/06/19 04:05:18;;;;;;;1.30;1.00;;;;;;;20.62;52.26;99856.69;4446715;32;33355;-83
2022/06/19 04:07:49;;;;;;;1.95;1.12;;;;;;;20.74;52.00;99847.28;4435926;32;33949;-83
2022/06/19 04:10:20;;;;;;;1.77;1.17;;;;;;;20.76;52.27;99849.84;4438030;32;33769;-83
2022/06/19 04:12:54;;;;;;;1.83;1.02;;;;;;;20.85;52.34;99847.56;4436320;32;33524;-82
2022/06/19 04:15:23;;;;;;;3.85;1.27;;;;;;;21.09;52.04;99849.81;4436379;32;32922;-82
2022/06/19 04:17:53;;;;;;;2.92;1.25;;;;;;;21.15;52.13;99846.84;4438601;32;33497;-82
2022/06/19 04:20:22;;;;;;;1.17;1.00;;;;;;;20.94;52.35;99848.00;4433086;32;33235;-82
2022/06/19 04:22:51;;;;;;;1.87;1.25;;;;;;;21.33;50.93;99841.50;4439912;32;33833;-83
2022/06/19 04:25:20;;;;;;;1.62;0.85;;;;;;;21.27;51.44;99843.53;4444409;32;32753;-83
2022/06/19 04:27:49;;;;;;;2.37;1.20;;;;;;;21.57;51.05;99839.31;4437355;32;34657;-83
2022/06/19 04:30:22;;;;;;;2.53;1.50;;;;;;;21.81;49.69;99843.19;4442352;32;34002;-83
2022/06/19 04:32:53;;;;;;;1.12;0.88;;;;;;;21.91;48.97;99836.44;4441613;32;34455;-83
2022/06/19 04:35:21;;;;;;;1.40;0.93;;;;;;;22.05;49.83;99840.09;4422368;32;32838;-83
2022/06/19 04:37:50;;;;;;;2.75;1.20;;;;;;;22.37;48.88;99835.56;4433632;32;33924;-83
2022/06/19 04:40:19;;;;;;;1.27;1.00;;;;;;;23.12;45.57;99843.38;4432544;32;33246;-83
2022/06/19 04:42:48;;;;;;;1.98;1.23;;;;;;;23.55;45.21;99845.94;4439053;32;33589;-83
2022/06/19 04:45:17;;;;;;;2.05;1.23;;;;;;;24.00;44.29;99841.25;4433541;32;33441;-83
2022/06/19 04:47:46;;;;;;;1.98;1.50;;;;;;;24.80;42.24;99841.16;4434119;32;33490;-83
2022/06/19 04:50:16;;;;;;;1.25;1.02;;;;;;;25.02;42.12;99843.16;4434644;32;32153;-84
2022/06/19 04:52:44;;;;;;;1.48;0.85;;;;;;;25.39;41.37;99848.50;4439048;32;34713;-83
2022/06/19 04:55:14;;;;;;;3.47;1.10;;;;;;;26.57;39.08;99848.53;4434501;32;33563;-84
2022/06/19 04:57:43;;;;;;;1.33;0.77;;;;;;;27.40;37.95;99855.38;4440009;32;34610;-83
2022/06/19 05:00:14;;;;;;;1.92;1.02;;;;;;;27.87;35.98;99852.47;4431531;32;34482;-85
2022/06/19 05:02:44;;;;;;;1.35;1.00;;;;;;;28.06;36.42;99857.13;4437947;32;33584;-84
2022/06/19 05:05:18;;;;;;;1.25;0.93;;;;;;;28.00;36.52;99857.63;4439126;32;34168;-84
2022/06/19 05:07:47;;;;;;;2.67;1.00;;;;;;;27.95;36.63;99862.50;4432125;32;34646;-84
2022/06/19 05:10:16;;;;;;;1.65;0.70;;;;;;;28.58;35.20;99866.06;4437619;32;33528;-83
2022/06/19 05:12:45;;;;;;;2.95;1.40;;;;;;;28.81;35.00;99866.75;4446246;32;34397;-84
2022/06/19 05:15:14;;;;;;;1.92;1.10;;;;;;;28.56;35.62;99862.69;4443047;32;33573;-84
2022/06/19 05:17:43;;;;;;;1.70;1.00;;;;;;;28.83;34.78;99864.81;4434438;32;33763;-83
2022/06/19 05:20:13;;;;;;;2.50;1.05;;;;;;;28.71;35.48;99863.19;4430346;32;33766;-84
2022/06/19 05:22:46;;;;;;;4.37;0.80;;;;;;;28.61;35.24;99870.28;4438013;32;33664;-84
2022/06/19 05:25:14;;;;;;;1.90;1.42;;;;;;;28.57;35.58;99869.72;4437466;32;33392;-84
2022/06/19 05:27:43;;;;;;;1.92;1.20;;;;;;;28.49;35.60;99870.38;4432703;32;34532;-84
2022/06/19 05:30:13;;;;;;;1.87;1.00;;;;;;;28.44;35.85;99866.34;4430932;32;33794;-84
2022/06/19 05:32:42;;;;;;;2.28;1.05;;;;;;;28.57;35.35;99864.37;4441113;32;33426;-84
2022/06/19 05:35:11;;;;;;;1.42;1.00;;;;;;;28.47;35.50;99868.81;4437340;32;33126;-84
2022/06/19 05:37:40;;;;;;;2.30;1.45;;;;;;;28.30;35.34;99871.06;4446787;32;34392;-84
2022/06/19 05:40:11;;;;;;;1.90;1.10;;;;;;;28.71;34.42;99865.88;4434293;32;33904;-84
2022/06/19 05:42:40;;;;;;;1.05;0.80;;;;;;;28.53;35.43;99867.44;4434093;32;34452;-85
2022/06/19 05:45:10;;;;;;;2.67;1.02;;;;;;;28.48;35.83;99870.50;4430888;32;34090;-84
2022/06/19 05:47:38;;;;;;;1.85;1.00;;;;;;;28.76;35.06;99878.81;4437750;32;33589;-84
2022/06/19 05:50:08;;;;;;;1.42;0.82;;;;;;;28.44;35.92;99867.22;4438231;32;34026;-85
2022/06/19 05:52:37;;;;;;;3.67;0.88;;;;;;;28.76;35.23;99871.66;4443945;32;34298;-84
2022/06/19 05:55:07;;;;;;;1.92;0.80;;;;;;;28.58;35.56;99873.22;4432947;32;32989;-85
2022/06/19 05:57:37;;;;;;;1.93;0.87;;;;;;;28.67;35.61;99873.28;4434411;32;33637;-83
2022/06/19 06:00:08;;;;;;;2.15;1.27;;;;;;;28.67;35.64;99870.63;4432295;32;35055;-84
2022/06/19 06:02:39;;;;;;;2.67;1.15;;;;;;;28.33;36.58;99871.78;4432009;32;33718;-83
2022/06/19 06:05:11;;;;;;;1.52;1.00;;;;;;;28.14;37.34;99875.12;4436494;32;32791;-83
2022/06/19 06:07:40;;;;;;;1.92;1.23;;;;;;;27.33;38.25;99877.25;4432207;32;33220;-83
2022/06/19 06:10:13;;;;;;;8.15;1.08;;;;;;;27.44;39.20;99877.25;4430838;32;33626;-84
2022/06/19 06:12:43;;;;;;;2.60;1.08;;;;;;;27.62;38.26;99874.94;4432804;32;34033;-85
2022/06/19 06:15:12;;;;;;;1.70;0.90;;;;;;;27.30;39.65;99875.69;4429471;32;32399;-85
2022/06/19 06:17:40;;;;;;;2.47;1.08;;;;;;;26.92;41.12;99876.91;4434893;32;34604;-84
2022/06/19 06:20:10;;;;;;;1.10;0.80;;;;;;;26.78;40.99;99867.34;4430160;32;34087;-84
2022/06/19 06:22:39;;;;;;;6.15;1.60;;;;;;;26.63;40.63;99873.84;4438403;32;34550;-83
2022/06/19 06:25:10;;;;;;;1.80;1.02;;;;;;;27.02;40.34;99869.88;4430316;32;33103;-84
2022/06/19 06:27:39;;;;;;;2.25;1.10;;;;;;;27.33;40.50;99877.25;4427233;32;33055;-85
2022/06/19 06:30:11;;;;;;;1.65;1.05;;;;;;;27.04;41.29;99877.75;4436901;32;34835;-83
2022/06/19 06:32:40;;;;;;;4.28;1.92;;;;;;;27.10;39.79;99877.25;4439320;32;33843;-83
2022/06/19 06:35:09;;;;;;;2.05;0.95;;;;;;;26.53;41.38;99879.03;4432564;32;34017;-84
2022/06/19 06:37:38;;;;;;;1.85;1.20;;;;;;;26.77;41.87;99884.28;4431901;32;33910;-83
2022/06/19 06:40:12;;;;;;;1.65;1.02;;;;;;;27.06;39.86;99874.97;4435647;32;34104;-83
2022/06/19 06:42:40;;;;;;;1.58;1.10;;;;;;;27.14;40.15;99884.03;4436970;32;33169;-84
2022/06/19 06:45:13;;;;;;;1.80;1.02;;;;;;;27.19;39.31;99881.91;4446090;32;34017;-83
2022/06/19 06:47:42;;;;;;;1.85;1.05;;;;;;;27.12;39.11;99880.66;4435463;32;34761;-83
2022/06/19 06:50:11;;;;;;;1.25;0.90;;;;;;;27.23;38.63;99883.34;4441350;32;34636;-83
2022/06/19 06:52:40;;;;;;;1.50;1.02;;;;;;;27.40;37.83;99883.78;4430550;32;33749;-83
2022/06/19 06:55:10;;;;;;;1.65;1.20;;;;;;;27.50;38.90;99886.56;4441511;32;33549;-84
2022/06/19 06:57:41;;;;;;;2.45;1.37;;;;;;;27.55;38.19;99889.72;4445266;32;33852;-83
2022/06/19 07:00:18;;;;;;;2.85;1.12;;;;;;;27.41;35.76;99885.50;4437512;32;33908;-84
2022/06/19 07:02:46;;;;;;;1.92;1.00;;;;;;;27.61;36.37;99882.06;4432738;32;33072;-83
2022/06/19 07:05:16;;;;;;;1.52;0.93;;;;;;;27.71;35.72;99889.31;4440931;32;33084;-83
2022/06/19 07:07:45;;;;;;;1.90;1.05;;;;;;;27.84;37.64;99890.91;4431983;32;33425;-84
2022/06/19 07:10:14;;;;;;;2.20;1.08;;;;;;;27.86;36.36;99893.44;4430566;32;34473;-83
2022/06/19 07:12:49;;;;;;;2.03;0.90;;;;;;;27.82;36.91;99889.28;4439969;32;33629;-83
2022/06/19 07:15:19;;;;;;;1.48;1.00;;;;;;;27.93;36.67;99885.75;4432810;32;33085;-83
2022/06/19 07:17:48;;;;;;;2.55;1.02;;;;;;;27.75;36.03;99880.94;4430179;32;33320;-83
2022/06/19 07:20:17;;;;;;;1.58;0.77;;;;;;;28.07;36.34;99883.62;4435233;32;33868;-83
2022/06/19 07:22:46;;;;;;;1.48;0.88;;;;;;;28.14;35.61;99883.16;4439538;32;33825;-84
2022/06/19 07:25:16;;;;;;;2.00;0.90;;;;;;;28.18;34.45;99881.91;4438116;32;33475;-82
2022/06/19 07:27:46;;;;;;;1.08;0.90;;;;;;;28.12;35.13;99880.59;4434696;32;33423;-82
2022/06/19 07:30:16;;;;;;;1.10;1.00;;;;;;;28.28;35.19;99870.34;4431778;32;34063;-84
2022/06/19 07:32:47;;;;;;;1.87;0.90;;;;;;;28.22;34.96;99875.34;4436360;32;33633;-84
2022/06/19 07:35:16;;;;;;;1.83;0.98;;;;;;;28.42;33.88;99876.34;4442373;32;33211;-83
2022/06/19 07:37:45;;;;;;;1.08;0.65;;;;;;;28.30;33.77;99876.38;4440327;32;33456;-83
2022/06/19 07:40:15;;;;;;;1.90;0.90;;;;;;;28.21;35.15;99873.66;4439984;32;33573;-84
2022/06/19 07:42:44;;;;;;;3.10;1.00;;;;;;;28.21;34.96;99873.66;4438887;32;33108;-84
2022/06/19 07:45:15;;;;;;;1.35;1.02;;;;;;;28.52;33.77;99874.59;4441824;32;32495;-84
2022/06/19 07:50:31;;;;;;;1.70;1.02;;;;;;;28.58;33.34;99870.56;4434688;32;33645;-84
2022/06/19 07:53:00;;;;;;;2.33;1.12;;;;;;;28.69;33.57;99865.16;4440164;32;32594;-84
2022/06/19 07:55:31;;;;;;;2.05;0.88;;;;;;;28.59;35.97;99861.59;4436188;32;35242;-83
2022/06/19 07:58:00;;;;;;;5.00;1.10;;;;;;;28.61;34.64;99864.94;4431928;32;32881;-83
2022/06/19 08:00:32;;;;;;;3.00;1.00;;;;;;;28.59;34.81;99856.25;4439780;32;34063;-83
2022/06/19 08:03:01;;;;;;;2.05;1.08;;;;;;;28.98;35.79;99859.94;4434779;32;33762;-85
2022/06/19 08:05:33;;;;;;;1.35;1.08;;;;;;;28.92;34.92;99856.00;4434327;32;31723;-83
2022/06/19 08:08:04;;;;;;;2.20;1.17;;;;;;;28.97;34.44;99860.06;4436738;32;33442;-83
2022/06/19 08:10:36;;;;;;;1.45;1.15;;;;;;;29.12;34.54;99848.94;4432896;32;32474;-84
2022/06/19 08:13:05;;;;;;;2.55;1.10;;;;;;;29.23;33.84;99839.13;4428215;32;34647;-84
2022/06/19 08:15:34;;;;;;;1.55;0.82;;;;;;;29.20;33.62;99837.56;4433941;32;33640;-83
2022/06/19 08:18:03;;;;;;;2.15;0.90;;;;;;;29.09;33.45;99840.31;4431402;32;33648;-83
2022/06/19 08:20:34;;;;;;;1.40;1.00;;;;;;;29.42;32.83;99827.63;4438629;32;34021;-84
2022/06/19 08:23:03;;;;;;;2.75;1.10;;;;;;;29.37;31.64;99843.22;4433825;32;33576;-84
2022/06/19 08:25:32;;;;;;;1.08;0.77;;;;;;;29.46;30.81;99835.22;4448166;32;33289;-85
2022/06/19 08:28:01;;;;;;;1.70;0.93;;;;;;;29.28;30.04;99829.69;4444042;32;33585;-84
2022/06/19 08:30:32;;;;;;;3.72;1.25;;;;;;;29.51;30.29;99832.16;4433444;32;33879;-84
2022/06/19 08:33:04;;;;;;;1.65;1.00;;;;;;;29.63;31.85;99828.38;4433911;32;33877;-83
2022/06/19 08:35:37;;;;;;;2.33;0.80;;;;;;;29.77;32.42;99821.81;4452523;32;33330;-83
2022/06/19 08:38:13;;;;;;;2.45;1.55;;;;;;;29.80;30.42;99826.84;4447371;32;34637;-84
2022/06/19 08:40:53;;;;;;;1.92;1.17;;;;;;;29.70;29.98;99826.84;4428177;32;34027;-83
2022/06/19 08:43:32;;;;;;;1.02;0.90;;;;;;;30.04;29.30;99820.25;4447902;32;33642;-83
2022/06/19 08:46:08;;;;;;;1.50;0.90;;;;;;;30.02;29.38;99822.22;4436982;32;33039;-85
2022/06/19 08:48:49;;;;;;;1.48;1.00;;;;;;;30.26;29.48;99822.62;4447765;32;32578;-86
2022/06/19 08:51:28;;;;;;;1.70;1.20;;;;;;;30.35;30.11;99831.63;4452119;32;34072;-84
2022/06/19 08:54:09;;;;;;;2.15;1.30;;;;;;;30.37;29.39;99830.50;4452777;32;33845;-84
2022/06/19 08:56:46;;;;;;;4.65;1.15;;;;;;;30.42;28.82;99827.38;4440249;32;33576;-83
2022/06/19 08:59:20;;;;;;;1.20;0.82;;;;;;;30.23;29.07;99824.69;4433789;32;34554;-84
2022/06/19 09:01:55;;;;;;;1.75;1.05;;;;;;;30.13;28.15;99830.06;4436137;32;34773;-84
2022/06/19 09:07:26;;;;;;;2.15;1.25;;;;;;;30.25;29.84;99831.63;4441342;32;34052;-84
2022/06/19 09:10:12;;;;;;;2.13;1.17;;;;;;;30.17;29.40;99818.94;4435253;32;34548;-83
2022/06/19 09:12:53;;;;;;;2.72;1.27;;;;;;;30.38;28.99;99826.00;4452680;32;33972;-85
2022/06/19 09:15:29;;;;;;;1.75;0.90;;;;;;;30.78;28.12;99823.06;4443819;32;34458;-84
2022/06/19 09:18:01;;;;;;;1.23;0.75;;;;;;;30.72;29.17;99817.44;4434549;32;33901;-84
2022/06/19 09:20:35;;;;;;;1.27;0.85;;;;;;;30.68;28.98;99824.91;4434433;32;34437;-85
2022/06/19 09:23:21;;;;;;;1.92;1.05;;;;;;;30.82;28.41;99823.59;4433065;32;33981;-84
2022/06/19 09:25:54;;;;;;;1.50;0.90;;;;;;;30.75;28.21;99814.44;4431797;32;33890;-84
2022/06/19 09:28:28;;;;;;;1.92;1.00;;;;;;;30.96;28.66;99815.09;4441223;32;33271;-85
2022/06/19 09:31:02;;;;;;;1.23;0.70;;;;;;;31.08;28.36;99809.56;4452720;32;33442;-85
2022/06/19 09:33:35;;;;;;;1.50;1.02;;;;;;;31.10;27.21;99795.00;4432478;32;198572;-85
2022/06/19 09:36:09;;;;;;;0.90;0.68;;;;;;;31.04;27.37;99806.31;4431849;32;33749;-83
2022/06/19 09:38:43;;;;;;;0.65;0.50;;;;;;;31.23;28.41;99802.69;4419570;32;33511;-84
2022/06/19 09:41:15;;;;;;;2.22;0.90;;;;;;;31.15;27.72;99802.59;4418488;32;33785;-86
2022/06/19 09:43:49;;;;;;;1.73;1.00;;;;;;;31.10;27.45;99796.81;4422437;32;34519;-86
2022/06/19 09:46:21;;;;;;;3.83;1.70;;;;;;;31.29;26.88;99796.72;4424876;32;33090;-85
2022/06/19 09:48:56;;;;;;;3.17;1.25;;;;;;;31.35;28.60;99796.09;4416893;32;32983;-86
2022/06/19 09:51:30;;;;;;;3.40;1.45;;;;;;;31.22;28.18;99799.16;4413275;32;33934;-85
2022/06/19 09:54:13;;;;;;;3.80;1.42;;;;;;;31.49;26.92;99802.00;4416901;32;33956;-85
2022/06/19 09:56:49;;;;;;;4.30;1.50;;;;;;;31.61;27.33;99792.72;4424602;32;34069;-84
2022/06/19 09:59:21;;;;;;;2.90;1.25;;;;;;;31.60;25.92;99793.69;4422602;32;33517;-84
2022/06/19 10:01:56;;;;;;;3.00;1.30;;;;;;;31.75;26.34;99788.63;4432288;32;33489;-84
2022/06/19 10:04:35;;;;;;;4.05;1.75;;;;;;;31.80;26.38;99775.59;4431331;32;34564;-84
2022/06/19 10:07:10;;;;;;;3.35;1.40;;;;;;;32.10;26.09;99774.38;4431250;32;33419;-86
2022/06/19 10:09:45;;;;;;;2.22;1.30;;;;;;;32.05;26.55;99782.03;4429437;32;33402;-84
2022/06/19 10:12:17;;;;;;;3.62;1.55;;;;;;;31.95;26.42;99768.72;4416073;32;34600;-84
2022/06/19 10:14:48;;;;;;;1.70;0.85;;;;;;;32.14;27.93;99778.44;4421383;32;34017;-85
2022/06/19 10:17:21;;;;;;;2.53;0.90;;;;;;;32.35;24.71;99769.16;4429231;32;33764;-84
2022/06/19 10:19:54;;;;;;;2.80;0.85;;;;;;;32.41;24.78;99768.53;4435259;32;34134;-85
2022/06/19 10:22:31;;;;;;;1.92;1.00;;;;;;;32.33;25.26;99765.78;4428221;32;34542;-84
2022/06/19 10:25:19;;;;;;;1.70;0.80;;;;;;;32.51;24.47;99751.31;4430488;32;34402;-84
2022/06/19 10:28:01;;;;;;;3.25;1.12;;;;;;;32.71;24.28;99764.50;4431341;32;34122;-85
2022/06/19 10:30:36;;;;;;;0.75;0.55;;;;;;;32.71;23.60;99753.75;4431169;32;33439;-85
2022/06/19 10:33:17;;;;;;;1.33;0.80;;;;;;;32.67;23.46;99753.25;4431416;32;34632;-85
2022/06/19 10:35:49;;;;;;;1.83;1.37;;;;;;;32.71;24.57;99743.84;4431771;32;34013;-85
2022/06/19 10:38:35;;;;;;;2.60;1.15;;;;;;;33.01;23.43;99748.81;4443727;32;34380;-84
2022/06/19 10:41:10;;;;;;;2.12;1.00;;;;;;;32.99;24.01;99746.31;4433898;32;33900;-86
2022/06/19 10:43:47;;;;;;;1.25;0.82;;;;;;;33.06;23.80;99738.47;4446182;32;33657;-84
2022/06/19 10:46:17;;;;;;;1.23;0.80;;;;;;;33.32;23.68;99732.94;4446266;32;34684;-86
2022/06/19 10:48:52;;;;;;;2.15;0.80;;;;;;;33.31;24.01;99726.72;4440957;32;33923;-85
2022/06/19 10:51:32;;;;;;;1.23;0.73;;;;;;;33.13;23.58;99721.50;4430762;32;33273;-85
2022/06/19 10:54:40;;;;;;;1.95;1.02;;;;;;;33.19;23.26;99721.84;4433836;32;34347;-87
2022/06/19 10:57:16;;;;;;;0.55;0.40;;;;;;;33.44;23.24;99712.81;4367872;32;34895;-86
2022/06/19 10:59:45;;;;;;;0.50;0.40;;;;;;;33.58;22.62;99722.91;4373612;32;33392;-85
2022/06/19 11:05:17;;;;;;;0.90;0.70;;;;;;;33.52;22.57;99711.97;4367535;32;33991;-86
2022/06/19 11:07:48;;;;;;;1.67;0.60;;;;;;;33.73;22.73;99714.16;4367602;32;33889;-86
2022/06/19 11:10:19;;;;;;;1.00;0.62;;;;;;;33.97;21.59;99713.28;4367845;32;33711;-87
2022/06/19 11:12:56;;;;;;;1.70;0.85;;;;;;;34.19;21.37;99704.53;4369667;32;33150;-85
2022/06/19 11:15:31;;;;;;;1.60;0.88;;;;;;;33.98;22.16;99712.31;4383869;32;33163;-86
2022/06/19 11:18:14;;;;;;;0.93;0.55;;;;;;;34.25;22.10;99708.38;4390621;32;33476;-85
2022/06/19 11:20:55;;;;;;;1.20;0.60;;;;;;;34.56;22.05;99708.44;4387657;32;33545;-86
2022/06/19 11:23:26;;;;;;;0.95;0.50;;;;;;;34.56;22.11;99704.91;4385342;32;34097;-84
2022/06/19 11:26:07;;;;;;;0.50;0.50;;;;;;;34.63;22.02;99703.22;4385351;32;35386;-83
2022/06/19 11:28:44;;;;;;;0.88;0.40;;;;;;;34.82;22.37;99716.28;4385153;32;33325;-83
2022/06/19 11:31:15;;;;;;;1.45;0.60;;;;;;;34.69;20.44;99702.50;4409650;32;34466;-84
2022/06/19 11:33:46;;;;;;;1.65;0.95;;;;;;;35.04;20.54;99695.75;4438788;32;33302;-84
2022/06/19 11:36:27;;;;;;;0.77;0.35;;;;;;;35.07;19.93;99677.53;4433096;32;34277;-83
2022/06/19 11:38:55;;;;;;;0.73;0.60;;;;;;;34.63;20.63;99678.97;4415578;32;33391;-85
2022/06/19 11:41:33;;;;;;;1.02;0.60;;;;;;;34.80;19.81;99680.56;4417417;32;34140;-85
2022/06/19 11:44:14;;;;;;;1.50;0.50;;;;;;;34.88;20.62;99676.16;4418081;32;34016;-83
2022/06/19 11:46:45;;;;;;;0.75;0.40;;;;;;;35.20;20.56;99681.31;4417488;32;34477;-85
2022/06/19 11:49:30;;;;;;;2.25;0.52;;;;;;;35.33;19.69;99683.44;4418863;32;34868;-84
2022/06/19 11:52:07;;;;;;;1.00;0.85;;;;;;;35.48;20.00;99675.38;4423055;32;33985;-85
2022/06/19 11:54:42;;;;;;;1.00;0.50;;;;;;;35.75;19.77;99681.25;4417447;32;33631;-84
2022/06/19 11:57:22;;;;;;;1.52;1.02;;;;;;;35.81;21.24;99672.41;4417447;32;33430;-83
2022/06/19 11:59:56;;;;;;;1.10;0.57;;;;;;;36.14;19.47;99680.19;4417653;32;34067;-83
2022/06/19 12:02:27;;;;;;;0.98;0.50;;;;;;;35.97;19.12;99682.19;4417282;32;33933;-84
2022/06/19 12:04:58;;;;;;;1.35;0.62;;;;;;;35.66;19.58;99672.38;4417773;32;32897;-85
2022/06/19 12:07:27;;;;;;;;;;;;;;;35.96;19.01;99672.44;4420370;32;33003;-83